createdAt,value
2019-03-02T00:01:52.431Z,20.03
2019-03-02T00:04:20.939Z,18.47
2019-03-02T00:06:49.469Z,17.83
2019-03-02T00:09:18.009Z,21.93
2019-03-02T00:11:46.576Z,26.83
2019-03-02T00:14:15.717Z,19.70
2019-03-02T00:16:45.784Z,19.87
2019-03-02T00:19:14.296Z,15.27
2019-03-02T00:21:42.887Z,18.30
2019-03-02T00:24:11.457Z,18.83
2019-03-02T00:26:42.899Z,15.83
2019-03-02T00:29:11.068Z,21.60
2019-03-02T00:31:40.584Z,23.73
2019-03-02T00:34:09.181Z,34.83
2019-03-02T00:36:37.769Z,25.17
2019-03-02T00:39:46.217Z,17.33
2019-03-02T00:42:17.056Z,19.33
2019-03-02T00:44:45.258Z,21.97
2019-03-02T00:47:13.801Z,18.20
2019-03-02T00:49:42.350Z,18.43
2019-03-02T00:52:10.983Z,23.83
2019-03-02T00:54:39.565Z,24.60
2019-03-02T00:57:08.140Z,20.97
2019-03-02T00:59:39.373Z,23.57
2019-03-02T01:04:42.057Z,19.83
2019-03-02T01:07:10.597Z,18.40
2019-03-02T01:09:39.145Z,18.90
2019-03-02T01:12:09.126Z,26.50
2019-03-02T01:14:37.841Z,21.10
2019-03-02T01:17:06.809Z,21.17
2019-03-02T01:19:35.815Z,21.13
2019-03-02T01:22:04.374Z,22.80
2019-03-02T01:24:35.617Z,26.27
2019-03-02T01:27:43.218Z,21.73
2019-03-02T01:30:51.722Z,27.80
2019-03-02T01:33:20.249Z,22.53
2019-03-02T01:35:48.827Z,18.17
2019-03-02T01:38:18.690Z,16.90
2019-03-02T01:40:47.619Z,23.70
2019-03-02T01:43:16.249Z,22.10
2019-03-02T01:45:44.903Z,28.10
2019-03-02T01:48:13.517Z,17.90
2019-03-02T01:50:43.973Z,31.43
2019-03-02T01:53:12.505Z,22.27
2019-03-02T01:55:40.991Z,25.57
2019-03-02T01:58:09.635Z,21.60
2019-03-02T02:00:38.171Z,24.20
2019-03-02T02:03:08.491Z,18.60
2019-03-02T02:05:37.160Z,22.73
2019-03-02T02:08:05.669Z,23.17
2019-03-02T02:10:34.404Z,19.13
2019-03-02T02:15:51.982Z,19.57
2019-03-02T02:18:20.553Z,20.70
2019-03-02T02:20:50.379Z,22.07
2019-03-02T02:23:19.892Z,26.97
2019-03-02T02:25:48.462Z,25.60
2019-03-02T02:28:16.996Z,22.97
2019-03-02T02:30:45.557Z,25.47
2019-03-02T02:33:14.128Z,27.90
2019-03-02T02:35:42.689Z,21.77
2019-03-02T02:38:16.113Z,24.60
2019-03-02T02:40:41.989Z,25.80
2019-03-02T02:43:10.449Z,24.07
2019-03-02T02:45:39.011Z,33.20
2019-03-02T02:48:07.891Z,25.87
2019-03-02T02:50:36.562Z,25.57
2019-03-02T02:53:06.827Z,19.00
2019-03-02T02:55:36.154Z,23.67
2019-03-02T02:58:05.735Z,18.07
2019-03-02T03:00:35.754Z,17.77
2019-03-02T03:03:04.534Z,20.97
2019-03-02T03:05:33.195Z,20.77
2019-03-02T03:08:01.825Z,21.60
2019-03-02T03:13:19.535Z,24.10
2019-03-02T03:18:37.052Z,29.97
2019-03-02T03:21:05.639Z,28.20
2019-03-02T03:23:34.203Z,21.87
2019-03-02T03:26:22.525Z,24.93
2019-03-02T03:34:01.727Z,19.60
2019-03-02T03:36:33.873Z,16.60
2019-03-02T03:39:02.692Z,27.50
2019-03-02T03:41:30.910Z,21.27
2019-03-02T03:43:59.506Z,22.53
2019-03-02T03:46:27.950Z,24.20
2019-03-02T03:48:57.823Z,33.43
2019-03-02T03:51:30.460Z,23.33
2019-03-02T03:54:01.742Z,23.33
2019-03-02T03:57:07.168Z,25.13
2019-03-02T03:59:35.907Z,21.50
2019-03-02T04:02:04.469Z,23.17
2019-03-02T04:04:33.014Z,21.50
2019-03-02T04:07:06.318Z,20.60
2019-03-02T04:09:31.845Z,22.97
2019-03-02T04:12:00.486Z,27.50
2019-03-02T04:14:29.029Z,24.67
2019-03-02T04:17:00.555Z,21.57
2019-03-02T04:19:47.493Z,22.00
2019-03-02T04:22:55.958Z,25.27
2019-03-02T04:25:24.565Z,31.10
2019-03-02T04:27:55.893Z,23.70
2019-03-02T04:30:30.584Z,19.70
2019-03-02T04:32:53.869Z,29.77
2019-03-02T04:35:22.410Z,22.97
2019-03-02T04:37:50.980Z,23.80
2019-03-02T04:40:23.314Z,29.40
2019-03-02T04:45:25.174Z,27.20
2019-03-02T04:47:54.606Z,22.90
2019-03-02T04:50:26.942Z,28.70
2019-03-02T04:52:54.795Z,21.00
2019-03-02T04:55:23.370Z,27.50
2019-03-02T04:57:52.058Z,23.60
2019-03-02T05:00:20.675Z,26.90
2019-03-02T05:02:51.600Z,21.47
2019-03-02T05:05:19.444Z,34.80
2019-03-02T05:07:48.041Z,35.83
2019-03-02T05:10:16.674Z,29.87
2019-03-02T05:12:45.278Z,28.63
2019-03-02T05:15:34.673Z,26.77
2019-03-02T05:18:03.221Z,26.77
2019-03-02T05:20:32.629Z,30.97
2019-03-02T05:23:01.964Z,24.43
2019-03-02T05:28:18.280Z,30.63
2019-03-02T05:30:46.757Z,24.67
2019-03-02T05:33:15.311Z,26.30
2019-03-02T05:35:43.869Z,25.33
2019-03-02T05:38:15.261Z,27.83
2019-03-02T05:40:42.727Z,26.33
2019-03-02T05:43:11.193Z,29.33
2019-03-02T05:45:39.689Z,30.40
2019-03-02T05:48:08.255Z,25.47
2019-03-02T05:50:36.850Z,33.03
2019-03-02T05:53:05.331Z,29.03
2019-03-02T05:55:33.874Z,28.57
2019-03-02T05:58:02.363Z,27.40
2019-03-02T06:00:33.869Z,28.67
2019-03-02T06:03:01.304Z,24.73
2019-03-02T06:05:29.874Z,29.70
2019-03-02T06:08:00.517Z,47.73
2019-03-02T06:10:29.039Z,27.60
2019-03-02T06:12:57.614Z,25.70
2019-03-02T06:15:26.215Z,32.90
2019-03-02T06:17:54.686Z,28.80
2019-03-02T06:20:23.189Z,32.50
2019-03-02T06:22:52.334Z,33.53
2019-03-02T06:25:23.190Z,28.50
2019-03-02T06:27:52.356Z,37.97
2019-03-02T06:30:40.650Z,30.80
2019-03-02T06:33:10.498Z,38.87
2019-03-02T06:35:39.458Z,26.13
2019-03-02T06:38:08.015Z,25.20
2019-03-02T06:40:36.631Z,31.67
2019-03-02T06:43:05.246Z,32.90
2019-03-02T06:45:33.789Z,30.87
2019-03-02T06:48:02.351Z,31.43
2019-03-02T06:50:31.791Z,39.77
2019-03-02T06:53:01.742Z,33.13
2019-03-02T06:55:31.475Z,42.87
2019-03-02T06:57:59.980Z,33.93
2019-03-02T07:00:28.584Z,41.63
2019-03-02T07:02:57.197Z,27.50
2019-03-02T07:05:25.813Z,34.33
2019-03-02T07:07:57.292Z,37.87
2019-03-02T07:10:24.829Z,29.63
2019-03-02T07:15:43.769Z,33.50
2019-03-02T07:18:31.927Z,31.50
2019-03-02T07:21:02.934Z,41.70
2019-03-02T07:23:30.854Z,40.03
2019-03-02T07:25:59.488Z,41.43
2019-03-02T07:28:28.205Z,34.27
2019-03-02T07:30:56.765Z,33.80
2019-03-02T07:33:25.326Z,36.60
2019-03-02T07:35:55.507Z,37.60
2019-03-02T07:38:24.636Z,33.23
2019-03-02T07:43:47.871Z,33.63
2019-03-02T07:46:16.519Z,44.33
2019-03-02T07:48:45.175Z,35.57
2019-03-02T07:51:13.860Z,36.77
2019-03-02T07:53:42.399Z,36.50
2019-03-02T07:56:32.484Z,37.70
2019-03-02T07:59:00.563Z,33.83
2019-03-02T08:01:29.117Z,50.73
2019-03-02T08:04:38.473Z,30.70
2019-03-02T08:07:07.988Z,39.47
2019-03-02T08:09:36.616Z,36.33
2019-03-02T08:12:05.135Z,32.00
2019-03-02T08:14:33.769Z,35.07
2019-03-02T08:17:02.466Z,33.40
2019-03-02T08:19:31.028Z,40.43
2019-03-02T08:21:59.631Z,36.67
2019-03-02T08:24:28.248Z,37.10
2019-03-02T08:26:56.867Z,33.93
2019-03-02T08:29:25.454Z,34.63
2019-03-02T08:31:53.997Z,33.60
2019-03-02T08:34:22.674Z,41.00
2019-03-02T08:36:54.233Z,32.57
2019-03-02T08:39:21.952Z,31.57
2019-03-02T08:41:50.711Z,38.23
2019-03-02T08:44:19.893Z,35.67
2019-03-02T08:46:49.928Z,34.13
2019-03-02T08:49:18.843Z,38.80
2019-03-02T08:51:47.416Z,32.50
2019-03-02T08:54:17.884Z,30.87
2019-03-02T08:56:47.726Z,36.57
2019-03-02T08:59:16.781Z,30.83
2019-03-02T09:01:45.431Z,48.50
2019-03-02T09:04:15.114Z,37.77
2019-03-02T09:06:44.435Z,23.73
2019-03-02T09:09:13.039Z,32.67
2019-03-02T09:11:44.439Z,26.70
2019-03-02T09:14:12.697Z,32.13
2019-03-02T09:16:42.619Z,27.03
2019-03-02T09:19:12.597Z,28.10
2019-03-02T09:21:41.313Z,26.83
2019-03-02T09:24:13.012Z,37.83
2019-03-02T09:26:40.465Z,31.63
2019-03-02T09:29:08.966Z,27.63
2019-03-02T09:34:27.518Z,39.57
2019-03-02T09:36:56.805Z,29.10
2019-03-02T09:39:25.311Z,38.10
2019-03-02T09:41:53.894Z,32.67
2019-03-02T09:44:22.541Z,33.07
2019-03-02T09:46:51.177Z,35.57
2019-03-02T09:49:19.846Z,25.37
2019-03-02T09:51:49.317Z,30.43
2019-03-02T09:54:19.453Z,36.33
2019-03-02T09:56:47.851Z,38.67
2019-03-02T09:59:16.678Z,32.63
2019-03-02T10:01:45.256Z,28.10
2019-03-02T10:04:13.770Z,30.80
2019-03-02T10:06:42.433Z,30.27
2019-03-02T10:09:50.903Z,32.40
2019-03-02T10:12:19.437Z,25.27
2019-03-02T10:14:48.108Z,32.20
2019-03-02T10:17:16.651Z,36.73
2019-03-02T10:19:45.242Z,37.47
2019-03-02T10:22:14.193Z,44.53
2019-03-02T10:24:42.741Z,32.40
2019-03-02T10:27:11.323Z,27.73
2019-03-02T10:29:39.950Z,30.97
2019-03-02T10:32:21.506Z,23.70
2019-03-02T10:34:50.030Z,31.07
2019-03-02T10:37:18.658Z,32.87
2019-03-02T10:39:47.214Z,30.17
2019-03-02T10:42:15.888Z,29.43
2019-03-02T10:44:44.638Z,38.20
2019-03-02T10:47:14.859Z,30.93
2019-03-02T10:49:44.648Z,29.60
2019-03-02T10:52:14.469Z,26.27
2019-03-02T10:54:44.716Z,32.53
2019-03-02T10:57:13.230Z,29.33
2019-03-02T10:59:41.822Z,31.87
2019-03-02T11:02:10.902Z,30.13
2019-03-02T11:04:58.604Z,23.23
2019-03-02T11:10:35.453Z,40.30
2019-03-02T11:13:23.199Z,26.43
2019-03-02T11:16:10.902Z,30.73
2019-03-02T11:18:58.612Z,28.17
2019-03-02T11:24:35.894Z,23.10
2019-03-02T11:27:23.546Z,24.83
2019-03-02T11:32:46.762Z,23.27
2019-03-02T11:35:34.475Z,24.53
2019-03-02T11:38:22.075Z,19.77
2019-03-02T11:41:10.337Z,21.13
2019-03-02T11:43:57.991Z,23.20
2019-03-02T11:49:30.046Z,21.67
2019-03-02T11:52:10.530Z,22.20
2019-03-02T11:55:00.906Z,29.70
2019-03-02T12:03:18.249Z,25.33
2019-03-02T12:06:07.035Z,22.03
2019-03-02T12:11:31.491Z,22.57
2019-03-02T12:17:00.131Z,23.23
2019-03-02T12:19:48.069Z,21.93
2019-03-02T12:22:35.727Z,23.43
2019-03-02T12:28:18.186Z,29.87
2019-03-02T12:31:05.886Z,24.17
2019-03-02T12:33:54.013Z,21.20
2019-03-02T12:36:43.054Z,20.23
2019-03-02T12:39:30.634Z,29.43
2019-03-02T12:42:18.348Z,22.87
2019-03-02T12:47:55.142Z,24.33
2019-03-02T12:50:42.859Z,19.50
2019-03-02T12:53:30.513Z,23.57
2019-03-02T12:56:18.226Z,26.20
2019-03-02T12:59:05.913Z,22.53
2019-03-02T13:04:32.570Z,22.80
2019-03-02T13:07:20.233Z,26.10
2019-03-02T13:10:07.837Z,24.60
2019-03-02T13:12:55.534Z,20.43
2019-03-02T13:18:32.521Z,18.43
2019-03-02T13:24:09.637Z,24.40
2019-03-02T13:26:57.243Z,24.70
2019-03-02T13:34:55.463Z,32.60
2019-03-02T13:37:43.128Z,21.10
2019-03-02T13:40:33.571Z,20.60
2019-03-02T13:46:09.637Z,21.00
2019-03-02T13:48:58.176Z,20.73
2019-03-02T13:51:46.715Z,18.50
2019-03-02T13:57:23.842Z,20.67
2019-03-02T14:00:11.537Z,24.50
2019-03-02T14:02:59.682Z,23.03
2019-03-02T14:05:47.446Z,21.80
2019-03-02T14:11:32.464Z,22.27
2019-03-02T14:14:21.047Z,18.77
2019-03-02T14:19:57.934Z,23.37
2019-03-02T14:22:48.974Z,15.37
2019-03-02T14:30:46.164Z,18.93
2019-03-02T14:33:34.135Z,30.73
2019-03-02T14:39:18.213Z,18.60
2019-03-02T14:51:07.137Z,18.90
2019-03-02T14:54:09.481Z,26.47
2019-03-02T14:56:48.375Z,19.00
2019-03-02T14:59:37.752Z,17.37
2019-03-02T15:07:59.970Z,15.80
2019-03-02T15:10:48.068Z,16.30
2019-03-02T15:13:35.761Z,19.03
2019-03-02T15:16:44.223Z,24.23
2019-03-02T15:19:31.851Z,15.70
2019-03-02T15:22:20.444Z,17.53
2019-03-02T15:25:08.991Z,18.40
2019-03-02T15:27:57.415Z,21.07
2019-03-02T15:33:37.635Z,17.13
2019-03-02T15:36:24.542Z,17.70
2019-03-02T15:39:12.813Z,16.50
2019-03-02T15:44:50.745Z,18.93
2019-03-02T15:47:38.423Z,18.10
2019-03-02T15:50:46.877Z,15.70
2019-03-02T15:56:24.464Z,16.20
2019-03-02T16:04:39.083Z,17.10
2019-03-02T16:10:05.595Z,18.83
2019-03-02T16:15:48.967Z,16.97
2019-03-02T16:18:38.442Z,17.03
2019-03-02T16:21:26.878Z,18.30
2019-03-02T16:24:14.376Z,18.03
2019-03-02T16:29:40.871Z,15.67
2019-03-02T16:32:51.825Z,18.93
2019-03-02T16:35:40.383Z,39.73
2019-03-02T16:38:31.015Z,15.43
2019-03-02T16:41:17.505Z,17.17
2019-03-02T16:46:44.450Z,14.93
2019-03-02T16:49:32.174Z,17.23
2019-03-02T16:52:20.136Z,17.57
2019-03-02T16:55:09.510Z,22.20
2019-03-02T16:57:57.314Z,18.80
2019-03-02T17:00:48.604Z,18.50
2019-03-02T17:03:35.002Z,19.47
2019-03-02T17:11:43.422Z,21.60
2019-03-02T17:14:31.120Z,23.50
2019-03-02T17:17:18.807Z,18.20
2019-03-02T17:25:20.868Z,20.13
2019-03-02T17:28:08.530Z,20.93
2019-03-02T17:30:58.195Z,20.47
2019-03-02T17:33:45.651Z,23.90
2019-03-02T17:39:12.310Z,26.83
2019-03-02T17:44:35.690Z,21.80
2019-03-02T17:52:34.672Z,26.30
2019-03-02T17:58:11.532Z,21.70
2019-03-02T18:00:59.195Z,21.30
2019-03-02T18:03:50.180Z,20.87
2019-03-02T18:09:05.750Z,25.80
2019-03-02T18:11:54.751Z,24.23
2019-03-02T18:14:44.196Z,28.10
2019-03-02T18:17:32.308Z,26.00
2019-03-02T18:22:56.127Z,24.07
2019-03-02T18:25:25.022Z,24.97
2019-03-02T18:30:24.316Z,47.83
2019-03-02T18:35:53.495Z,31.17
2019-03-02T18:38:22.177Z,33.93
2019-03-02T18:40:52.155Z,26.90
2019-03-02T18:43:21.234Z,32.00
2019-03-02T18:45:49.941Z,32.90
2019-03-02T18:54:22.977Z,28.53
2019-03-02T18:57:31.436Z,31.20
2019-03-02T19:00:00.137Z,26.37
2019-03-02T19:02:29.144Z,29.20
2019-03-02T19:04:59.553Z,31.70
2019-03-02T19:07:28.091Z,31.33
2019-03-02T19:09:56.749Z,31.17
2019-03-02T19:12:28.004Z,55.87
2019-03-02T19:14:57.793Z,31.17
2019-03-02T19:17:26.116Z,32.00
2019-03-02T19:19:54.891Z,35.57
2019-03-02T19:22:23.734Z,30.30
2019-03-02T19:24:52.448Z,32.07
2019-03-02T19:27:22.821Z,40.97
2019-03-02T19:29:51.340Z,30.30
2019-03-02T19:32:19.961Z,31.23
2019-03-02T19:34:48.680Z,31.67
2019-03-02T19:37:17.277Z,35.23
2019-03-02T19:39:45.836Z,35.00
2019-03-02T19:53:52.082Z,30.47
2019-03-02T19:56:21.290Z,30.30
2019-03-02T19:58:50.635Z,33.70
2019-03-02T20:06:36.116Z,32.80
2019-03-02T20:09:44.640Z,35.33
2019-03-02T20:12:13.416Z,35.87
2019-03-02T20:14:42.117Z,34.53
2019-03-02T20:17:10.821Z,41.10
2019-03-02T20:22:31.731Z,31.63
2019-03-02T20:25:00.577Z,35.93
2019-03-02T20:27:29.232Z,37.63
2019-03-02T20:29:57.946Z,41.37
2019-03-02T20:32:26.637Z,44.77
2019-03-02T20:34:55.404Z,47.53
2019-03-02T20:37:24.051Z,34.67
2019-03-02T20:39:52.708Z,35.70
2019-03-02T20:42:40.458Z,40.40
2019-03-02T20:45:48.960Z,43.37
2019-03-02T20:48:57.683Z,43.90
2019-03-02T20:51:26.336Z,41.87
2019-03-02T20:53:54.880Z,40.50
2019-03-02T20:56:23.494Z,41.37
2019-03-02T20:58:54.636Z,41.13
2019-03-02T21:04:13.212Z,38.77
2019-03-02T21:06:42.304Z,39.10
2019-03-02T21:09:11.104Z,44.03
2019-03-02T21:11:39.592Z,41.73
2019-03-02T21:14:08.245Z,39.23
2019-03-02T21:16:36.884Z,40.13
2019-03-02T21:19:24.631Z,45.03
2019-03-02T21:21:53.303Z,45.23
2019-03-02T21:24:21.867Z,45.67
2019-03-02T21:26:50.324Z,42.50
2019-03-02T21:29:18.934Z,58.23
2019-03-02T21:31:47.603Z,45.23
2019-03-02T21:34:16.261Z,44.70
2019-03-02T21:36:44.894Z,42.90
2019-03-02T21:39:53.459Z,41.27
2019-03-02T21:42:22.018Z,41.27
2019-03-02T21:44:52.631Z,44.60
2019-03-02T21:47:20.806Z,44.83
2019-03-02T21:49:49.348Z,44.83
2019-03-02T21:52:18.319Z,44.17
2019-03-02T21:54:48.446Z,42.20
2019-03-02T21:57:17.080Z,46.00
2019-03-02T21:59:45.641Z,40.63
2019-03-02T22:02:14.571Z,42.03
2019-03-02T22:04:43.150Z,46.03
2019-03-02T22:07:11.870Z,44.10
2019-03-02T22:09:40.443Z,39.33
2019-03-02T22:17:58.043Z,41.03
2019-03-02T22:20:26.680Z,48.73
2019-03-02T22:22:55.277Z,41.30
2019-03-02T22:26:03.997Z,42.13
2019-03-02T22:28:32.953Z,44.33
2019-03-02T22:31:01.842Z,41.20
2019-03-02T22:33:30.409Z,50.10
2019-03-02T22:35:58.813Z,54.50
2019-03-02T22:38:27.264Z,51.87
2019-03-02T22:40:55.963Z,46.43
2019-03-02T22:43:24.403Z,47.63
2019-03-02T22:45:53.183Z,43.27
2019-03-02T22:48:21.868Z,44.50
2019-03-02T22:50:50.400Z,44.10
2019-03-02T22:53:18.977Z,40.37
2019-03-02T22:55:47.642Z,42.33
2019-03-02T23:01:49.705Z,48.73
2019-03-02T23:04:37.680Z,45.60
2019-03-02T23:07:06.323Z,46.87
2019-03-02T23:09:35.217Z,54.83
2019-03-02T23:14:52.872Z,45.23
2019-03-02T23:17:21.425Z,49.13
2019-03-02T23:19:49.974Z,51.13
2019-03-02T23:22:18.574Z,48.50
2019-03-02T23:24:47.594Z,46.07
2019-03-02T23:27:16.591Z,41.73
2019-03-02T23:29:45.199Z,47.37
2019-03-02T23:32:13.787Z,47.23
2019-03-02T23:34:42.401Z,49.20
2019-03-02T23:37:10.995Z,49.03
2019-03-02T23:39:39.639Z,42.83
2019-03-02T23:42:08.340Z,48.37
2019-03-02T23:44:37.004Z,53.17
2019-03-02T23:47:05.737Z,54.43
2019-03-02T23:49:34.278Z,42.83
2019-03-02T23:52:02.810Z,45.20
2019-03-02T23:54:32.044Z,50.87
2019-03-02T23:57:00.929Z,50.13
2019-03-02T23:59:29.632Z,51.70
